createdAt,value
2022-10-05T00:01:26.692Z,8.99
2022-10-05T00:04:01.014Z,8.92
2022-10-05T00:06:31.266Z,8.85
2022-10-05T00:09:01.015Z,8.75
2022-10-05T00:11:28.909Z,8.72
2022-10-05T00:13:56.872Z,8.27
2022-10-05T00:16:26.153Z,8.37
2022-10-05T00:18:54.899Z,8.24
2022-10-05T00:21:24.923Z,8.32
2022-10-05T00:23:55.023Z,8.01
2022-10-05T00:26:24.715Z,8.26
2022-10-05T00:28:54.310Z,8.26
2022-10-05T00:31:23.838Z,7.88
2022-10-05T00:33:54.937Z,7.63
2022-10-05T00:36:22.876Z,7.92
2022-10-05T00:38:51.124Z,7.85
2022-10-05T00:41:24.117Z,7.92
2022-10-05T00:44:25.889Z,7.65
2022-10-05T00:46:58.299Z,7.64
2022-10-05T00:49:45.535Z,7.62
2022-10-05T00:52:23.592Z,7.58
2022-10-05T00:55:01.067Z,7.95
2022-10-05T00:57:40.300Z,8.12
2022-10-05T01:00:10.187Z,8.17
2022-10-05T01:02:52.480Z,7.92
2022-10-05T01:05:36.312Z,7.92
2022-10-05T01:08:15.493Z,8.11
2022-10-05T01:10:50.305Z,8.10
2022-10-05T01:13:26.931Z,7.88
2022-10-05T01:16:04.913Z,7.97
2022-10-05T01:18:41.661Z,7.90
2022-10-05T01:21:19.363Z,7.96
2022-10-05T01:24:18.428Z,7.79
2022-10-05T01:27:22.534Z,7.94
2022-10-05T01:30:00.735Z,8.06
2022-10-05T01:32:37.432Z,8.18
2022-10-05T01:35:14.319Z,8.23
2022-10-05T01:37:53.001Z,8.09
2022-10-05T01:40:34.038Z,8.03
2022-10-05T01:43:12.615Z,8.02
2022-10-05T01:45:54.719Z,8.01
2022-10-05T01:48:33.152Z,7.98
2022-10-05T01:51:12.429Z,7.89
2022-10-05T01:53:51.725Z,7.27
2022-10-05T01:56:25.809Z,7.04
2022-10-05T01:59:08.030Z,7.20
2022-10-05T02:01:44.567Z,7.38
2022-10-05T02:04:35.612Z,7.46
2022-10-05T02:07:11.022Z,7.63
2022-10-05T02:09:46.125Z,7.28
2022-10-05T02:12:18.845Z,7.12
2022-10-05T02:14:51.925Z,7.34
2022-10-05T02:17:27.104Z,7.68
2022-10-05T02:20:01.448Z,7.67
2022-10-05T02:22:34.045Z,7.84
2022-10-05T02:25:06.549Z,7.76
2022-10-05T02:27:39.771Z,7.58
2022-10-05T02:30:14.143Z,7.80
2022-10-05T02:32:52.570Z,7.73
2022-10-05T02:35:22.717Z,7.92
2022-10-05T02:38:02.433Z,7.58
2022-10-05T02:40:43.171Z,7.70
2022-10-05T02:43:22.294Z,7.71
2022-10-05T02:46:09.469Z,7.75
2022-10-05T02:48:48.068Z,7.68
2022-10-05T02:51:22.339Z,7.70
2022-10-05T02:54:04.241Z,7.70
2022-10-05T02:56:38.965Z,7.50
2022-10-05T02:59:14.339Z,7.52
2022-10-05T03:01:51.310Z,7.70
2022-10-05T03:04:32.155Z,7.55
2022-10-05T03:07:08.839Z,7.68
2022-10-05T03:09:42.445Z,7.45
2022-10-05T03:12:21.150Z,7.07
2022-10-05T03:15:00.773Z,6.62
2022-10-05T03:17:35.928Z,7.03
2022-10-05T03:20:16.894Z,7.14
2022-10-05T03:22:50.839Z,7.14
2022-10-05T03:25:37.149Z,7.01
2022-10-05T03:28:12.079Z,6.90
2022-10-05T03:30:48.957Z,7.17
2022-10-05T03:33:28.447Z,7.26
2022-10-05T03:36:07.248Z,7.05
2022-10-05T03:38:42.664Z,6.83
2022-10-05T03:41:21.354Z,7.16
2022-10-05T03:44:12.515Z,6.79
2022-10-05T03:46:53.141Z,6.81
2022-10-05T03:49:28.661Z,7.12
2022-10-05T03:52:09.718Z,6.70
2022-10-05T03:54:42.105Z,6.84
2022-10-05T03:57:14.832Z,6.91
2022-10-05T03:59:50.405Z,7.08
2022-10-05T04:02:25.550Z,7.03
2022-10-05T04:04:59.816Z,6.66
2022-10-05T04:07:38.085Z,6.85
2022-10-05T04:10:13.380Z,6.69
2022-10-05T04:12:46.623Z,6.78
2022-10-05T04:15:20.582Z,6.93
2022-10-05T04:17:52.431Z,7.03
2022-10-05T04:20:24.160Z,7.03
2022-10-05T04:23:02.516Z,7.05
2022-10-05T04:25:36.170Z,7.06
2022-10-05T04:28:11.266Z,6.97
2022-10-05T04:30:43.234Z,6.88
2022-10-05T04:33:13.737Z,7.06
2022-10-05T04:35:50.107Z,7.15
2022-10-05T04:38:31.864Z,6.91
2022-10-05T04:41:17.755Z,6.91
2022-10-05T04:44:00.254Z,6.97
2022-10-05T04:46:41.487Z,6.91
2022-10-05T04:49:28.334Z,6.95
2022-10-05T04:52:05.253Z,6.65
2022-10-05T04:54:52.252Z,6.69
2022-10-05T04:57:26.563Z,6.66
2022-10-05T05:00:10.129Z,6.69
2022-10-05T05:03:05.408Z,6.65
2022-10-05T05:06:12.021Z,6.61
2022-10-05T05:08:58.142Z,6.64
2022-10-05T05:11:34.660Z,6.85
2022-10-05T05:14:24.175Z,6.76
2022-10-05T05:17:08.549Z,6.57
2022-10-05T05:19:51.765Z,6.45
2022-10-05T05:22:30.036Z,6.57
2022-10-05T05:25:30.171Z,6.48
2022-10-05T05:28:16.985Z,6.54
2022-10-05T05:30:49.743Z,6.72
2022-10-05T05:33:24.196Z,6.59
2022-10-05T05:36:23.389Z,6.63
2022-10-05T05:39:05.041Z,6.43
2022-10-05T05:41:38.742Z,6.27
2022-10-05T05:44:21.248Z,6.36
2022-10-05T05:47:05.405Z,6.23
2022-10-05T05:49:55.299Z,6.56
2022-10-05T05:52:31.524Z,6.67
2022-10-05T05:55:03.682Z,6.61
2022-10-05T05:57:38.581Z,6.68
2022-10-05T06:00:17.665Z,6.78
2022-10-05T06:02:57.001Z,6.39
2022-10-05T06:05:31.239Z,6.73
2022-10-05T06:08:07.176Z,6.56
2022-10-05T06:10:42.034Z,6.65
2022-10-05T06:13:18.374Z,6.53
2022-10-05T06:15:54.143Z,6.63
2022-10-05T06:18:24.058Z,6.57
2022-10-05T06:21:00.857Z,6.80
2022-10-05T06:23:34.258Z,6.73
2022-10-05T06:26:39.505Z,6.75
2022-10-05T06:29:13.587Z,6.69
2022-10-05T06:32:06.790Z,6.63
2022-10-05T06:34:53.259Z,6.70
2022-10-05T06:37:28.164Z,6.95
2022-10-05T06:40:06.206Z,6.94
2022-10-05T06:43:12.072Z,7.20
2022-10-05T06:46:08.678Z,7.69
2022-10-05T06:49:13.366Z,7.79
2022-10-05T06:51:57.659Z,8.00
2022-10-05T06:54:56.625Z,8.16
2022-10-05T06:58:01.208Z,8.17
2022-10-05T07:00:36.474Z,8.47
2022-10-05T07:03:12.557Z,8.80
2022-10-05T07:06:00.439Z,8.93
2022-10-05T07:08:41.476Z,8.88
2022-10-05T07:11:24.106Z,9.01
2022-10-05T07:14:10.034Z,9.01
2022-10-05T07:16:48.133Z,9.35
2022-10-05T07:19:30.318Z,9.50
2022-10-05T07:22:19.356Z,9.82
2022-10-05T07:24:58.104Z,9.93
2022-10-05T07:27:34.101Z,10.32
2022-10-05T07:30:06.870Z,10.50
2022-10-05T07:32:45.975Z,10.69
2022-10-05T07:35:39.106Z,11.03
2022-10-05T07:38:16.528Z,11.59
2022-10-05T07:40:50.109Z,11.63
2022-10-05T07:43:57.483Z,12.30
2022-10-05T07:46:27.940Z,12.60
2022-10-05T07:49:03.782Z,12.97
2022-10-05T07:51:40.930Z,13.28
2022-10-05T07:54:24.871Z,13.59
2022-10-05T07:56:59.734Z,13.58
2022-10-05T07:59:32.943Z,13.63
2022-10-05T08:02:13.271Z,14.20
2022-10-05T08:04:49.643Z,14.43
2022-10-05T08:07:18.485Z,14.58
2022-10-05T08:09:54.873Z,14.65
2022-10-05T08:12:31.657Z,14.83
2022-10-05T08:15:04.403Z,15.07
2022-10-05T08:17:42.498Z,15.18
2022-10-05T08:20:29.550Z,15.23
2022-10-05T08:23:03.283Z,15.33
2022-10-05T08:25:41.286Z,15.34
2022-10-05T08:28:18.535Z,15.66
2022-10-05T08:30:56.096Z,15.77
2022-10-05T08:33:28.557Z,15.85
2022-10-05T08:36:07.463Z,15.99
2022-10-05T08:38:36.095Z,16.01
2022-10-05T08:41:42.093Z,16.10
2022-10-05T08:44:56.158Z,16.17
2022-10-05T08:47:38.396Z,16.29
2022-10-05T08:50:20.529Z,16.79
2022-10-05T08:53:25.256Z,17.02
2022-10-05T08:56:02.503Z,17.24
2022-10-05T08:58:50.442Z,17.28
2022-10-05T09:01:34.272Z,17.18
2022-10-05T09:04:30.086Z,17.32
2022-10-05T09:07:15.405Z,17.45
2022-10-05T09:10:23.985Z,17.59
2022-10-05T09:13:25.850Z,17.76
2022-10-05T09:16:18.143Z,17.86
2022-10-05T09:19:16.202Z,18.23
2022-10-05T09:21:48.859Z,18.43
2022-10-05T09:24:27.712Z,18.52
2022-10-05T09:27:08.795Z,18.85
2022-10-05T09:30:09.196Z,19.02
2022-10-05T09:33:00.710Z,18.59
2022-10-05T09:35:58.116Z,18.87
2022-10-05T09:38:37.310Z,19.12
2022-10-05T09:41:31.203Z,19.20
2022-10-05T09:44:36.366Z,19.29
2022-10-05T09:47:21.873Z,19.38
2022-10-05T09:50:18.854Z,19.54
2022-10-05T09:53:06.859Z,19.51
2022-10-05T09:55:59.763Z,19.99
2022-10-05T09:59:07.507Z,19.72
2022-10-05T10:01:51.786Z,19.66
2022-10-05T10:04:30.490Z,19.73
2022-10-05T10:07:31.291Z,20.00
2022-10-05T10:10:29.357Z,19.70
2022-10-05T10:13:17.520Z,19.97
2022-10-05T10:16:13.565Z,20.06
2022-10-05T10:19:07.489Z,20.03
2022-10-05T10:21:54.867Z,20.03
2022-10-05T10:24:43.539Z,19.96
2022-10-05T10:27:27.601Z,19.98
2022-10-05T10:30:19.051Z,20.15
2022-10-05T10:33:26.442Z,20.92
2022-10-05T10:36:06.030Z,20.65
2022-10-05T10:38:41.382Z,20.73
2022-10-05T10:41:26.007Z,21.13
2022-10-05T10:44:37.115Z,21.48
2022-10-05T10:47:32.023Z,21.30
2022-10-05T10:50:28.320Z,21.42
2022-10-05T10:53:10.116Z,21.47
2022-10-05T10:55:54.010Z,21.45
2022-10-05T10:58:56.777Z,21.61
2022-10-05T11:01:31.946Z,22.11
2022-10-05T11:04:48.503Z,21.89
2022-10-05T11:07:57.103Z,21.58
2022-10-05T11:10:53.003Z,21.75
2022-10-05T11:13:43.841Z,21.74
2022-10-05T11:16:52.273Z,21.14
2022-10-05T11:20:05.030Z,22.00
2022-10-05T11:22:55.556Z,21.89
2022-10-05T11:25:48.016Z,21.68
2022-10-05T11:28:39.020Z,22.23
2022-10-05T11:31:48.134Z,21.83
2022-10-05T11:34:39.541Z,21.48
2022-10-05T11:37:25.585Z,21.44
2022-10-05T11:40:14.425Z,21.40
2022-10-05T11:43:32.304Z,21.66
2022-10-05T11:46:09.769Z,21.64
2022-10-05T11:49:02.040Z,21.76
2022-10-05T11:51:42.878Z,21.83
2022-10-05T11:54:26.813Z,21.72
2022-10-05T11:57:01.577Z,21.64
2022-10-05T11:59:35.727Z,22.04
2022-10-05T12:02:33.968Z,22.20
2022-10-05T12:05:12.131Z,22.06
2022-10-05T12:07:48.664Z,22.62
2022-10-05T12:10:29.034Z,22.43
2022-10-05T12:13:09.636Z,22.65
2022-10-05T12:15:44.665Z,21.82
2022-10-05T12:18:18.936Z,22.53
2022-10-05T12:20:54.884Z,22.34
2022-10-05T12:23:29.131Z,22.41
2022-10-05T12:26:01.864Z,22.14
2022-10-05T12:28:36.215Z,22.64
2022-10-05T12:31:14.240Z,22.52
2022-10-05T12:33:50.878Z,22.41
2022-10-05T12:36:31.890Z,22.05
2022-10-05T12:39:20.498Z,22.02
2022-10-05T12:41:54.204Z,22.13
2022-10-05T12:44:42.121Z,22.10
2022-10-05T12:47:19.983Z,21.93
2022-10-05T12:50:02.113Z,21.92
2022-10-05T12:52:57.005Z,21.80
2022-10-05T12:55:29.182Z,22.09
2022-10-05T12:58:06.788Z,22.22
2022-10-05T13:00:38.714Z,22.24
2022-10-05T13:03:18.979Z,21.77
2022-10-05T13:05:56.947Z,21.96
2022-10-05T13:08:39.000Z,22.11
2022-10-05T13:11:15.159Z,22.34
2022-10-05T13:13:56.596Z,22.40
2022-10-05T13:16:32.037Z,22.16
2022-10-05T13:19:21.211Z,22.36
2022-10-05T13:22:07.757Z,22.20
2022-10-05T13:24:43.196Z,22.37
2022-10-05T13:27:17.530Z,22.16
2022-10-05T13:29:54.425Z,21.95
2022-10-05T13:32:26.300Z,22.14
2022-10-05T13:35:01.693Z,22.23
2022-10-05T13:37:39.072Z,22.36
2022-10-05T13:40:18.662Z,22.31
2022-10-05T13:42:50.408Z,22.13
2022-10-05T13:45:22.554Z,22.12
2022-10-05T13:48:01.940Z,22.44
2022-10-05T13:50:33.615Z,22.49
2022-10-05T13:53:16.307Z,22.05
2022-10-05T13:55:48.546Z,22.58
2022-10-05T13:58:28.764Z,22.53
2022-10-05T14:01:00.713Z,22.47
2022-10-05T14:03:32.524Z,22.13
2022-10-05T14:06:03.793Z,22.63
2022-10-05T14:08:34.934Z,22.91
2022-10-05T14:11:22.065Z,22.92
2022-10-05T14:13:52.156Z,22.99
2022-10-05T14:16:22.681Z,22.81
2022-10-05T14:18:57.587Z,22.97
2022-10-05T14:21:27.028Z,22.54
2022-10-05T14:23:58.694Z,23.01
2022-10-05T14:26:35.956Z,22.69
2022-10-05T14:29:17.100Z,22.73
2022-10-05T14:31:52.370Z,22.63
2022-10-05T14:34:29.526Z,22.71
2022-10-05T14:36:59.843Z,22.76
2022-10-05T14:39:29.358Z,22.71
2022-10-05T14:42:13.618Z,22.84
2022-10-05T14:44:44.378Z,22.81
2022-10-05T14:47:23.787Z,23.04
2022-10-05T14:50:15.589Z,22.90
2022-10-05T14:52:51.839Z,23.39
2022-10-05T14:55:51.062Z,23.55
2022-10-05T14:58:51.769Z,23.32
2022-10-05T15:01:27.338Z,23.02
2022-10-05T15:04:06.867Z,23.09
2022-10-05T15:06:40.780Z,23.00
2022-10-05T15:09:51.057Z,23.38
2022-10-05T15:12:26.066Z,23.21
2022-10-05T15:15:02.697Z,23.15
2022-10-05T15:17:37.507Z,23.27
2022-10-05T15:20:18.427Z,23.42
2022-10-05T15:22:53.626Z,23.15
2022-10-05T15:25:27.838Z,23.31
2022-10-05T15:28:07.394Z,22.89
2022-10-05T15:30:41.141Z,22.63
2022-10-05T15:33:18.150Z,22.47
2022-10-05T15:35:55.802Z,22.48
2022-10-05T15:38:26.416Z,22.97
2022-10-05T15:41:04.444Z,22.86
2022-10-05T15:43:46.985Z,23.20
2022-10-05T15:46:23.155Z,23.08
2022-10-05T15:49:02.214Z,22.64
2022-10-05T15:51:40.637Z,22.68
2022-10-05T15:54:36.864Z,22.80
2022-10-05T15:57:11.982Z,22.59
2022-10-05T15:59:53.199Z,22.64
2022-10-05T16:02:28.932Z,22.73
2022-10-05T16:05:08.537Z,22.69
2022-10-05T16:08:01.930Z,22.77
2022-10-05T16:10:34.849Z,22.71
2022-10-05T16:13:20.165Z,22.28
2022-10-05T16:15:57.008Z,22.26
2022-10-05T16:18:42.772Z,22.10
2022-10-05T16:21:22.787Z,22.03
2022-10-05T16:24:05.826Z,21.77
2022-10-05T16:26:46.928Z,21.53
2022-10-05T16:29:23.908Z,21.69
2022-10-05T16:31:58.272Z,21.61
2022-10-05T16:34:38.979Z,21.73
2022-10-05T16:37:12.043Z,21.68
2022-10-05T16:39:51.243Z,21.56
2022-10-05T16:42:30.606Z,21.27
2022-10-05T16:45:06.877Z,20.92
2022-10-05T16:47:44.011Z,20.41
2022-10-05T16:50:22.553Z,20.14
2022-10-05T16:52:56.983Z,20.02
2022-10-05T16:55:33.277Z,19.97
2022-10-05T16:58:07.072Z,19.58
2022-10-05T17:00:46.759Z,19.76
2022-10-05T17:03:28.378Z,19.00
2022-10-05T17:06:33.525Z,18.87
2022-10-05T17:09:30.874Z,18.49
2022-10-05T17:12:19.046Z,17.89
2022-10-05T17:15:00.359Z,18.16
2022-10-05T17:17:38.566Z,18.13
2022-10-05T17:20:23.622Z,17.87
2022-10-05T17:22:56.256Z,17.96
2022-10-05T17:25:35.315Z,17.87
2022-10-05T17:28:22.884Z,18.01
2022-10-05T17:31:07.802Z,17.34
2022-10-05T17:33:55.927Z,17.61
2022-10-05T17:36:39.118Z,17.68
2022-10-05T17:39:16.934Z,17.90
2022-10-05T17:41:45.488Z,17.31
2022-10-05T17:44:26.167Z,17.14
2022-10-05T17:46:56.611Z,16.52
2022-10-05T17:49:27.773Z,16.72
2022-10-05T17:52:18.339Z,16.79
2022-10-05T17:55:15.267Z,16.96
2022-10-05T17:57:43.224Z,16.76
2022-10-05T18:00:43.846Z,17.05
2022-10-05T18:03:35.823Z,16.92
2022-10-05T18:06:37.798Z,16.70
2022-10-05T18:09:29.061Z,16.49
2022-10-05T18:12:12.540Z,16.48
2022-10-05T18:15:00.246Z,16.51
2022-10-05T18:17:45.125Z,16.37
2022-10-05T18:20:21.075Z,16.62
2022-10-05T18:22:51.018Z,16.66
2022-10-05T18:25:28.387Z,16.51
2022-10-05T18:28:09.901Z,16.16
2022-10-05T18:30:55.068Z,16.27
2022-10-05T18:33:49.189Z,16.40
2022-10-05T18:36:37.705Z,16.21
2022-10-05T18:39:18.787Z,16.44
2022-10-05T18:41:52.838Z,16.62
2022-10-05T18:44:32.771Z,16.30
2022-10-05T18:47:07.243Z,16.40
2022-10-05T18:49:54.182Z,16.43
2022-10-05T18:52:32.090Z,16.42
2022-10-05T18:55:10.142Z,16.45
2022-10-05T18:57:56.387Z,16.26
2022-10-05T19:00:32.177Z,16.38
2022-10-05T19:03:03.521Z,16.38
2022-10-05T19:05:48.336Z,16.42
2022-10-05T19:08:28.138Z,16.42
2022-10-05T19:11:01.111Z,16.33
2022-10-05T19:13:41.529Z,16.04
2022-10-05T19:16:28.203Z,16.18
2022-10-05T19:19:10.415Z,16.23
2022-10-05T19:21:47.361Z,16.19
2022-10-05T19:24:40.650Z,16.33
2022-10-05T19:27:15.451Z,16.21
2022-10-05T19:30:01.503Z,16.14
2022-10-05T19:32:40.217Z,16.37
2022-10-05T19:35:22.762Z,16.40
2022-10-05T19:38:03.138Z,16.34
2022-10-05T19:40:39.791Z,16.25
2022-10-05T19:43:25.376Z,16.32
2022-10-05T19:46:04.888Z,16.37
2022-10-05T19:48:45.450Z,16.24
2022-10-05T19:51:14.001Z,16.33
2022-10-05T19:53:46.998Z,16.08
2022-10-05T19:56:20.595Z,16.14
2022-10-05T19:58:49.689Z,16.12
2022-10-05T20:01:25.719Z,16.08
2022-10-05T20:03:58.018Z,16.23
2022-10-05T20:06:26.954Z,16.16
2022-10-05T20:08:59.986Z,15.95
2022-10-05T20:11:29.256Z,15.69
2022-10-05T20:14:20.498Z,15.73
2022-10-05T20:17:05.895Z,15.96
2022-10-05T20:19:57.066Z,16.00
2022-10-05T20:22:32.755Z,15.92
2022-10-05T20:25:02.518Z,15.90
2022-10-05T20:27:45.002Z,15.59
2022-10-05T20:30:15.303Z,15.44
2022-10-05T20:32:43.677Z,15.53
2022-10-05T20:35:13.027Z,15.17
2022-10-05T20:37:41.338Z,15.34
2022-10-05T20:40:10.458Z,15.21
2022-10-05T20:42:38.476Z,15.33
2022-10-05T20:45:07.351Z,15.29
2022-10-05T20:47:37.599Z,15.20
2022-10-05T20:50:08.966Z,15.11
2022-10-05T20:52:38.666Z,15.07
2022-10-05T20:55:08.924Z,15.17
2022-10-05T20:57:41.421Z,15.23
2022-10-05T21:00:10.776Z,14.90
2022-10-05T21:02:39.492Z,14.94
2022-10-05T21:05:08.558Z,15.08
2022-10-05T21:07:37.832Z,14.87
2022-10-05T21:10:06.764Z,15.13
2022-10-05T21:12:34.746Z,15.14
2022-10-05T21:15:04.654Z,14.94
2022-10-05T21:17:34.639Z,14.86
2022-10-05T21:20:02.756Z,15.10
2022-10-05T21:22:30.612Z,14.92
2022-10-05T21:25:00.341Z,15.09
2022-10-05T21:27:28.792Z,15.06
2022-10-05T21:29:56.679Z,15.28
2022-10-05T21:32:24.510Z,15.33
2022-10-05T21:34:55.136Z,15.46
2022-10-05T21:37:23.255Z,15.41
2022-10-05T21:39:51.376Z,15.31
2022-10-05T21:42:20.641Z,15.32
2022-10-05T21:44:48.526Z,15.52
2022-10-05T21:47:16.421Z,15.57
2022-10-05T21:49:44.309Z,15.49
2022-10-05T21:52:12.148Z,15.74
2022-10-05T21:54:40.091Z,15.58
2022-10-05T21:57:08.078Z,15.75
2022-10-05T21:59:37.480Z,15.85
2022-10-05T22:02:05.380Z,15.90
2022-10-05T22:04:33.248Z,15.83
2022-10-05T22:07:01.198Z,15.81
2022-10-05T22:09:29.882Z,15.89
2022-10-05T22:11:58.360Z,16.00
2022-10-05T22:14:26.425Z,15.98
2022-10-05T22:16:55.658Z,15.79
2022-10-05T22:19:23.553Z,16.00
2022-10-05T22:21:51.397Z,15.83
2022-10-05T22:24:19.306Z,15.98
2022-10-05T22:26:51.400Z,15.81
2022-10-05T22:29:20.726Z,15.91
2022-10-05T22:31:49.186Z,15.95
2022-10-05T22:34:19.136Z,15.68
2022-10-05T22:36:47.516Z,15.86
2022-10-05T22:39:15.723Z,15.78
2022-10-05T22:41:43.718Z,15.83
2022-10-05T22:44:11.738Z,15.57
2022-10-05T22:46:39.792Z,15.56
2022-10-05T22:49:07.806Z,15.28
2022-10-05T22:51:37.038Z,15.42
2022-10-05T22:54:05.095Z,15.28
2022-10-05T22:56:32.985Z,15.32
2022-10-05T22:59:00.781Z,15.32
2022-10-05T23:01:28.676Z,15.28
2022-10-05T23:03:57.310Z,15.16
2022-10-05T23:06:26.595Z,15.29
2022-10-05T23:08:56.301Z,15.18
2022-10-05T23:11:26.006Z,15.24
2022-10-05T23:13:56.822Z,15.30
2022-10-05T23:16:27.229Z,15.31
2022-10-05T23:18:55.731Z,15.33
2022-10-05T23:21:25.540Z,15.42
2022-10-05T23:23:54.943Z,15.42
2022-10-05T23:26:25.027Z,15.46
2022-10-05T23:28:53.019Z,15.32
2022-10-05T23:31:22.673Z,15.31
2022-10-05T23:33:50.824Z,15.38
2022-10-05T23:36:20.706Z,15.43
2022-10-05T23:38:48.890Z,15.33
2022-10-05T23:41:19.623Z,15.32
2022-10-05T23:43:47.767Z,15.43
2022-10-05T23:46:16.224Z,15.31
2022-10-05T23:48:44.616Z,15.50
2022-10-05T23:51:14.214Z,15.42
2022-10-05T23:53:42.064Z,15.50
2022-10-05T23:56:09.893Z,15.24
2022-10-05T23:58:39.135Z,15.41
